createdAt,value
2018-08-20T00:02:16.826Z,17.93
2018-08-20T00:05:22.461Z,17.88
2018-08-20T00:08:27.410Z,17.87
2018-08-20T00:11:32.353Z,17.80
2018-08-20T00:14:37.434Z,17.79
2018-08-20T00:17:42.352Z,17.77
2018-08-20T00:20:47.484Z,17.71
2018-08-20T00:23:52.399Z,17.69
2018-08-20T00:26:59.236Z,17.66
2018-08-20T00:30:05.588Z,17.64
2018-08-20T00:33:10.741Z,17.59
2018-08-20T00:36:15.648Z,17.56
2018-08-20T00:39:20.580Z,17.56
2018-08-20T00:42:25.492Z,17.50
2018-08-20T00:45:30.422Z,17.42
2018-08-20T00:48:35.377Z,17.26
2018-08-20T00:51:40.321Z,17.25
2018-08-20T00:54:45.293Z,17.24
2018-08-20T00:57:50.212Z,17.25
2018-08-20T01:00:55.099Z,17.27
2018-08-20T01:04:00.703Z,17.27
2018-08-20T01:07:05.647Z,17.28
2018-08-20T01:10:10.565Z,17.28
2018-08-20T01:13:15.460Z,17.30
2018-08-20T01:16:20.365Z,17.31
2018-08-20T01:19:25.264Z,17.27
2018-08-20T01:22:30.156Z,17.23
2018-08-20T01:25:35.039Z,17.22
2018-08-20T01:28:39.969Z,17.21
2018-08-20T01:31:44.865Z,17.15
2018-08-20T01:34:49.760Z,17.07
2018-08-20T01:37:54.792Z,17.04
2018-08-20T01:40:59.672Z,17.06
2018-08-20T01:44:04.577Z,17.03
2018-08-20T01:47:09.465Z,16.98
2018-08-20T01:50:14.384Z,16.96
2018-08-20T01:53:19.288Z,16.99
2018-08-20T01:56:24.181Z,17.00
2018-08-20T01:59:29.228Z,16.97
2018-08-20T02:02:34.166Z,16.97
2018-08-20T02:05:39.081Z,16.95
2018-08-20T02:08:44.013Z,16.89
2018-08-20T02:11:48.901Z,16.92
2018-08-20T02:14:53.785Z,16.92
2018-08-20T02:17:58.720Z,16.84
2018-08-20T02:21:03.651Z,16.81
2018-08-20T02:24:08.570Z,16.81
2018-08-20T02:27:13.457Z,16.77
2018-08-20T02:30:18.348Z,16.75
2018-08-20T02:33:23.277Z,16.77
2018-08-20T02:36:28.165Z,16.75
2018-08-20T02:39:33.045Z,16.72
2018-08-20T02:42:37.989Z,16.65
2018-08-20T02:45:42.891Z,16.62
2018-08-20T02:48:47.792Z,16.66
2018-08-20T02:51:52.713Z,16.65
2018-08-20T02:54:57.636Z,16.64
2018-08-20T02:58:02.560Z,16.59
2018-08-20T03:01:07.493Z,16.55
2018-08-20T03:04:12.449Z,16.53
2018-08-20T03:07:17.361Z,16.55
2018-08-20T03:10:22.288Z,16.53
2018-08-20T03:13:27.212Z,16.54
2018-08-20T03:16:32.456Z,16.50
2018-08-20T03:19:37.328Z,16.46
2018-08-20T03:22:42.283Z,16.41
2018-08-20T03:25:47.236Z,16.43
2018-08-20T03:28:52.188Z,16.39
2018-08-20T03:31:57.116Z,16.36
2018-08-20T03:35:02.049Z,16.37
2018-08-20T03:38:07.019Z,16.38
2018-08-20T03:41:11.984Z,16.35
2018-08-20T03:44:16.920Z,16.32
2018-08-20T03:47:21.872Z,16.28
2018-08-20T03:50:26.800Z,16.22
2018-08-20T03:53:31.784Z,16.19
2018-08-20T03:56:36.745Z,16.23
2018-08-20T03:59:41.654Z,16.26
2018-08-20T04:02:46.541Z,16.27
2018-08-20T04:05:51.457Z,16.29
2018-08-20T04:08:56.350Z,16.25
2018-08-20T04:12:02.155Z,16.25
2018-08-20T04:15:07.054Z,16.23
2018-08-20T04:18:11.957Z,16.24
2018-08-20T04:21:16.849Z,16.10
2018-08-20T04:24:21.779Z,16.11
2018-08-20T04:27:26.669Z,16.13
2018-08-20T04:30:31.620Z,16.15
2018-08-20T04:33:36.478Z,16.19
2018-08-20T04:36:41.528Z,16.25
2018-08-20T04:40:03.775Z,16.23
2018-08-20T04:43:09.118Z,16.20
2018-08-20T04:46:14.057Z,16.22
2018-08-20T04:49:18.954Z,16.10
2018-08-20T04:52:23.842Z,15.97
2018-08-20T04:55:28.733Z,16.04
2018-08-20T04:58:33.667Z,16.12
2018-08-20T05:01:38.557Z,16.20
2018-08-20T05:04:43.446Z,16.27
2018-08-20T05:07:48.342Z,16.20
2018-08-20T05:10:53.240Z,16.26
2018-08-20T05:13:58.127Z,16.32
2018-08-20T05:17:03.081Z,16.37
2018-08-20T05:20:08.661Z,16.45
2018-08-20T05:23:13.559Z,16.49
2018-08-20T05:26:19.153Z,16.60
2018-08-20T05:29:24.042Z,16.73
2018-08-20T05:32:29.056Z,16.90
2018-08-20T05:35:34.022Z,17.10
2018-08-20T05:38:38.937Z,17.33
2018-08-20T05:41:43.885Z,17.46
2018-08-20T05:44:49.018Z,17.52
2018-08-20T05:47:53.832Z,17.52
2018-08-20T05:50:58.836Z,17.61
2018-08-20T05:54:03.989Z,17.95
2018-08-20T05:57:09.064Z,18.29
2018-08-20T06:00:15.957Z,18.53
2018-08-20T06:03:20.952Z,18.82
2018-08-20T06:06:25.912Z,19.05
2018-08-20T06:09:30.895Z,19.34
2018-08-20T06:12:36.372Z,19.50
2018-08-20T06:15:41.384Z,19.80
2018-08-20T06:18:46.368Z,20.04
2018-08-20T06:21:51.374Z,20.28
2018-08-20T06:24:56.371Z,20.49
2018-08-20T06:28:01.349Z,20.70
2018-08-20T06:31:06.349Z,21.12
2018-08-20T06:34:11.377Z,21.43
2018-08-20T06:37:16.337Z,21.80
2018-08-20T06:40:21.339Z,22.12
2018-08-20T06:43:26.337Z,22.38
2018-08-20T06:46:31.381Z,22.58
2018-08-20T06:49:36.410Z,22.83
2018-08-20T06:52:42.923Z,23.20
2018-08-20T06:55:47.921Z,23.64
2018-08-20T06:58:53.193Z,23.97
2018-08-20T07:01:58.230Z,24.26
2018-08-20T07:05:16.781Z,24.35
2018-08-20T07:08:21.874Z,24.32
2018-08-20T07:11:27.051Z,24.36
2018-08-20T07:14:32.126Z,24.44
2018-08-20T07:17:37.472Z,24.10
2018-08-20T07:20:42.461Z,23.62
2018-08-20T07:23:47.466Z,23.69
2018-08-20T07:26:52.456Z,24.15
2018-08-20T07:29:57.409Z,24.70
2018-08-20T07:33:02.528Z,25.11
2018-08-20T07:36:07.441Z,25.24
2018-08-20T07:39:12.392Z,25.72
2018-08-20T07:42:18.215Z,26.15
2018-08-20T07:45:23.136Z,26.03
2018-08-20T07:48:28.117Z,26.40
2018-08-20T07:51:33.096Z,26.48
2018-08-20T07:54:38.876Z,26.52
2018-08-20T07:57:43.852Z,26.93
2018-08-20T08:00:48.817Z,26.85
2018-08-20T08:03:53.777Z,26.63
2018-08-20T08:06:58.766Z,26.43
2018-08-20T08:10:05.601Z,26.30
2018-08-20T08:13:10.576Z,26.20
2018-08-20T08:16:15.534Z,26.03
2018-08-20T08:19:20.512Z,25.79
2018-08-20T08:22:25.473Z,25.92
2018-08-20T08:25:30.465Z,26.03
2018-08-20T08:28:35.493Z,25.93
2018-08-20T08:31:40.522Z,25.95
2018-08-20T08:34:45.521Z,25.98
2018-08-20T08:37:50.484Z,25.85
2018-08-20T08:40:55.538Z,26.11
2018-08-20T08:44:00.501Z,26.07
2018-08-20T08:47:05.684Z,26.10
2018-08-20T08:50:11.005Z,26.07
2018-08-20T08:53:16.071Z,25.76
2018-08-20T08:56:21.058Z,25.81
2018-08-20T08:59:26.248Z,25.91
2018-08-20T09:02:31.262Z,26.12
2018-08-20T09:05:36.196Z,26.38
2018-08-20T09:08:41.161Z,26.52
2018-08-20T09:11:46.100Z,26.32
2018-08-20T09:14:51.024Z,26.17
2018-08-20T09:17:56.049Z,26.24
2018-08-20T09:21:00.974Z,26.42
2018-08-20T09:24:05.977Z,26.49
2018-08-20T09:27:11.017Z,26.81
2018-08-20T09:30:18.900Z,26.87
2018-08-20T09:33:23.797Z,27.07
2018-08-20T09:36:28.709Z,27.32
2018-08-20T09:39:33.761Z,27.70
2018-08-20T09:42:39.497Z,28.12
2018-08-20T09:45:44.429Z,28.33
2018-08-20T09:48:49.468Z,28.62
2018-08-20T09:51:54.368Z,28.85
2018-08-20T09:54:59.623Z,28.99
2018-08-20T09:58:04.609Z,29.06
2018-08-20T10:01:09.585Z,28.77
2018-08-20T10:04:14.774Z,28.69
2018-08-20T10:07:19.746Z,28.80
2018-08-20T10:10:24.660Z,28.58
2018-08-20T10:13:29.581Z,28.80
2018-08-20T10:16:49.753Z,29.20
2018-08-20T10:19:54.708Z,29.82
2018-08-20T10:22:59.686Z,29.79
2018-08-20T10:26:05.258Z,29.09
2018-08-20T10:29:10.254Z,28.79
2018-08-20T10:32:15.161Z,28.79
2018-08-20T10:35:20.137Z,29.27
2018-08-20T10:38:25.178Z,29.86
2018-08-20T10:41:30.091Z,29.51
2018-08-20T10:44:40.653Z,29.38
2018-08-20T10:47:47.012Z,29.65
2018-08-20T10:50:51.940Z,29.83
2018-08-20T10:53:56.892Z,29.14
2018-08-20T10:57:02.137Z,28.98
2018-08-20T11:00:07.553Z,28.82
2018-08-20T11:03:12.554Z,28.86
2018-08-20T11:06:17.536Z,28.80
2018-08-20T11:09:22.522Z,28.71
2018-08-20T11:12:27.669Z,28.79
2018-08-20T11:15:32.665Z,29.03
2018-08-20T11:18:37.632Z,28.95
2018-08-20T11:21:42.633Z,28.98
2018-08-20T11:24:47.657Z,29.03
2018-08-20T11:27:52.633Z,29.36
2018-08-20T11:30:57.598Z,29.70
2018-08-20T11:34:02.638Z,30.08
2018-08-20T11:37:07.645Z,30.24
2018-08-20T11:40:12.668Z,30.31
2018-08-20T11:43:17.696Z,30.41
2018-08-20T11:46:22.669Z,30.78
2018-08-20T11:49:27.644Z,31.43
2018-08-20T11:52:32.585Z,31.53
2018-08-20T11:55:51.376Z,31.12
2018-08-20T11:58:57.137Z,30.67
2018-08-20T12:02:02.247Z,30.41
2018-08-20T12:05:08.099Z,30.48
2018-08-20T12:08:13.065Z,30.43
2018-08-20T12:11:18.024Z,30.17
2018-08-20T12:14:23.224Z,29.92
2018-08-20T12:17:28.201Z,29.70
2018-08-20T12:20:33.149Z,29.82
2018-08-20T12:23:38.197Z,29.83
2018-08-20T12:26:43.168Z,30.04
2018-08-20T12:29:48.156Z,30.23
2018-08-20T12:32:53.128Z,30.63
2018-08-20T12:35:58.117Z,30.60
2018-08-20T12:39:04.190Z,30.79
2018-08-20T12:42:09.162Z,30.57
2018-08-20T12:45:14.130Z,30.18
2018-08-20T12:48:19.073Z,29.79
2018-08-20T12:52:12.314Z,29.41
2018-08-20T12:55:17.314Z,28.93
2018-08-20T12:58:22.384Z,28.66
2018-08-20T13:01:27.365Z,28.64
2018-08-20T13:04:32.366Z,28.46
2018-08-20T13:07:37.355Z,28.60
2018-08-20T13:10:42.316Z,28.92
2018-08-20T13:13:47.278Z,29.23
2018-08-20T13:16:52.243Z,29.51
2018-08-20T13:19:57.208Z,29.83
2018-08-20T13:23:02.165Z,29.95
2018-08-20T13:26:07.165Z,29.98
2018-08-20T13:29:12.133Z,29.85
2018-08-20T13:32:17.151Z,29.86
2018-08-20T13:35:22.115Z,29.68
2018-08-20T13:38:27.109Z,29.40
2018-08-20T13:41:32.056Z,29.52
2018-08-20T13:44:37.381Z,29.47
2018-08-20T13:47:42.325Z,29.61
2018-08-20T13:50:47.316Z,29.77
2018-08-20T13:53:52.272Z,29.70
2018-08-20T13:56:57.250Z,29.50
2018-08-20T14:00:02.261Z,29.32
2018-08-20T14:03:07.267Z,29.14
2018-08-20T14:06:12.222Z,28.91
2018-08-20T14:09:17.150Z,28.79
2018-08-20T14:12:22.132Z,28.69
2018-08-20T14:15:27.094Z,28.57
2018-08-20T14:18:32.058Z,28.32
2018-08-20T14:22:26.336Z,28.09
2018-08-20T14:25:31.553Z,28.16
2018-08-20T14:28:36.517Z,28.38
2018-08-20T14:31:41.478Z,28.61
2018-08-20T14:34:46.470Z,28.80
2018-08-20T14:37:51.465Z,28.64
2018-08-20T14:40:56.424Z,28.46
2018-08-20T14:44:01.365Z,28.27
2018-08-20T14:47:06.346Z,28.11
2018-08-20T14:50:13.388Z,28.11
2018-08-20T14:53:18.361Z,28.09
2018-08-20T14:56:23.317Z,28.09
2018-08-20T14:59:28.310Z,28.07
2018-08-20T15:02:33.318Z,27.96
2018-08-20T15:05:38.340Z,28.02
2018-08-20T15:08:43.293Z,28.01
2018-08-20T15:11:48.298Z,28.00
2018-08-20T15:14:53.268Z,28.25
2018-08-20T15:17:58.240Z,28.24
2018-08-20T15:21:03.656Z,28.41
2018-08-20T15:24:08.604Z,28.37
2018-08-20T15:27:13.602Z,28.32
2018-08-20T15:30:18.568Z,28.26
2018-08-20T15:33:23.581Z,28.11
2018-08-20T15:36:28.553Z,28.20
2018-08-20T15:39:33.707Z,28.37
2018-08-20T15:42:38.625Z,28.18
2018-08-20T15:45:43.621Z,28.21
2018-08-20T15:48:49.078Z,28.13
2018-08-20T15:51:54.048Z,28.17
2018-08-20T15:54:59.021Z,27.99
2018-08-20T15:58:04.348Z,27.84
2018-08-20T16:01:09.442Z,27.62
2018-08-20T16:04:14.746Z,27.55
2018-08-20T16:07:19.901Z,27.65
2018-08-20T16:10:24.841Z,27.48
2018-08-20T16:13:29.835Z,27.47
2018-08-20T16:16:34.816Z,27.43
2018-08-20T16:19:40.289Z,27.49
2018-08-20T16:22:45.269Z,27.44
2018-08-20T16:25:50.289Z,27.32
2018-08-20T16:28:55.290Z,27.45
2018-08-20T16:32:00.369Z,27.43
2018-08-20T16:35:07.396Z,27.48
2018-08-20T16:38:12.425Z,27.53
2018-08-20T16:41:17.379Z,27.54
2018-08-20T16:44:22.546Z,27.66
2018-08-20T16:47:27.674Z,27.58
2018-08-20T16:50:32.696Z,27.67
2018-08-20T16:53:37.857Z,27.61
2018-08-20T16:56:43.983Z,27.67
2018-08-20T16:59:48.981Z,27.63
2018-08-20T17:02:53.953Z,27.64
2018-08-20T17:05:58.905Z,27.57
2018-08-20T17:09:04.577Z,27.48
2018-08-20T17:12:09.616Z,27.40
2018-08-20T17:15:16.210Z,27.33
2018-08-20T17:18:21.249Z,27.21
2018-08-20T17:21:26.216Z,27.21
2018-08-20T17:24:36.904Z,27.11
2018-08-20T17:27:43.988Z,27.11
2018-08-20T17:30:52.494Z,26.97
2018-08-20T17:33:57.485Z,27.03
2018-08-20T17:37:02.841Z,27.04
2018-08-20T17:40:09.231Z,26.92
2018-08-20T17:43:15.489Z,26.74
2018-08-20T17:46:20.453Z,26.75
2018-08-20T17:49:28.847Z,26.66
2018-08-20T17:52:39.241Z,26.62
2018-08-20T17:55:44.226Z,26.59
2018-08-20T17:58:51.380Z,26.50
2018-08-20T18:01:56.337Z,26.48
2018-08-20T18:05:01.303Z,26.50
2018-08-20T18:08:06.300Z,26.33
2018-08-20T18:11:11.320Z,26.33
2018-08-20T18:14:17.239Z,26.24
2018-08-20T18:17:22.206Z,26.31
2018-08-20T18:20:28.789Z,26.25
2018-08-20T18:23:34.645Z,26.03
2018-08-20T18:26:45.188Z,25.82
2018-08-20T18:29:50.177Z,25.56
2018-08-20T18:32:55.146Z,25.46
2018-08-20T18:36:04.757Z,25.43
2018-08-20T18:39:11.768Z,25.38
2018-08-20T18:42:16.956Z,25.29
2018-08-20T18:45:21.936Z,25.23
2018-08-20T18:48:33.265Z,25.03
2018-08-20T18:51:38.244Z,24.89
2018-08-20T18:54:46.888Z,24.83
2018-08-20T18:57:51.854Z,24.77
2018-08-20T19:00:56.829Z,24.65
2018-08-20T19:04:01.769Z,24.43
2018-08-20T19:07:08.166Z,24.12
2018-08-20T19:10:19.315Z,23.79
2018-08-20T19:13:24.241Z,23.67
2018-08-20T19:16:30.683Z,23.64
2018-08-20T19:19:40.320Z,23.71
2018-08-20T19:22:45.243Z,23.75
2018-08-20T19:25:50.182Z,23.76
2018-08-20T19:28:55.134Z,23.71
2018-08-20T19:32:00.069Z,23.53
2018-08-20T19:35:04.989Z,23.55
2018-08-20T19:38:09.908Z,23.56
2018-08-20T19:41:15.049Z,23.52
2018-08-20T19:44:19.949Z,23.45
2018-08-20T19:47:24.861Z,23.28
2018-08-20T19:50:29.796Z,23.20
2018-08-20T19:53:34.733Z,23.19
2018-08-20T19:56:39.648Z,23.16
2018-08-20T19:59:44.596Z,23.08
2018-08-20T20:02:49.565Z,22.98
2018-08-20T20:05:54.563Z,22.89
2018-08-20T20:09:06.693Z,22.76
2018-08-20T20:12:11.667Z,22.69
2018-08-20T20:15:16.619Z,22.64
2018-08-20T20:18:21.553Z,22.55
2018-08-20T20:21:26.521Z,22.27
2018-08-20T20:24:31.705Z,22.15
2018-08-20T20:27:36.678Z,22.09
2018-08-20T20:30:41.644Z,22.13
2018-08-20T20:33:46.605Z,22.17
2018-08-20T20:36:51.561Z,22.16
2018-08-20T20:39:59.563Z,22.19
2018-08-20T20:43:04.538Z,22.21
2018-08-20T20:46:09.861Z,22.18
2018-08-20T20:49:14.833Z,22.20
2018-08-20T20:52:19.834Z,22.17
2018-08-20T20:55:24.788Z,22.15
2018-08-20T20:58:32.777Z,22.15
2018-08-20T21:01:37.819Z,22.18
2018-08-20T21:04:42.622Z,22.17
2018-08-20T21:07:48.562Z,22.11
2018-08-20T21:10:53.493Z,22.13
2018-08-20T21:13:58.723Z,22.13
2018-08-20T21:17:03.656Z,22.16
2018-08-20T21:20:08.600Z,22.14
2018-08-20T21:23:13.524Z,22.15
2018-08-20T21:26:18.456Z,22.12
2018-08-20T21:29:24.844Z,22.08
2018-08-20T21:32:30.018Z,22.14
2018-08-20T21:35:34.924Z,22.14
2018-08-20T21:38:43.892Z,22.12
2018-08-20T21:41:49.124Z,21.95
2018-08-20T21:44:54.069Z,21.94
2018-08-20T21:47:59.045Z,21.78
2018-08-20T21:52:12.557Z,21.79
2018-08-20T21:55:17.454Z,21.59
2018-08-20T22:02:32.007Z,21.51
2018-08-20T22:05:36.941Z,21.55
2018-08-20T22:08:41.917Z,21.60
2018-08-20T22:11:46.899Z,21.57
2018-08-20T22:14:51.868Z,21.56
2018-08-20T22:17:57.137Z,21.60
2018-08-20T22:21:02.401Z,21.64
2018-08-20T22:24:07.387Z,21.53
2018-08-20T22:27:12.345Z,21.53
2018-08-20T22:30:17.348Z,21.42
2018-08-20T22:33:22.473Z,21.38
2018-08-20T22:36:28.749Z,21.40
2018-08-20T22:39:33.743Z,21.40
2018-08-20T22:42:46.081Z,21.43
2018-08-20T22:45:51.040Z,21.39
2018-08-20T22:48:58.133Z,21.35
2018-08-20T22:52:03.700Z,21.42
2018-08-20T22:55:08.916Z,21.29
2018-08-20T22:58:13.889Z,21.22
2018-08-20T23:01:19.076Z,21.20
2018-08-20T23:04:24.558Z,21.35
2018-08-20T23:07:29.797Z,21.46
2018-08-20T23:10:37.693Z,21.40
2018-08-20T23:13:42.656Z,21.25
2018-08-20T23:16:48.564Z,21.36
2018-08-20T23:19:53.749Z,21.42
2018-08-20T23:22:58.978Z,21.44
2018-08-20T23:26:07.677Z,21.41
2018-08-20T23:29:12.670Z,21.27
2018-08-20T23:32:17.593Z,21.28
2018-08-20T23:35:22.917Z,21.37
2018-08-20T23:38:28.748Z,21.38
2018-08-20T23:41:33.693Z,21.41
2018-08-20T23:44:38.653Z,21.40
2018-08-20T23:47:43.589Z,21.41
2018-08-20T23:50:58.680Z,21.38
2018-08-20T23:54:03.776Z,21.31
2018-08-20T23:57:08.737Z,21.27
